Bernice Lind — WDC8364 — position and weather

sailwx.info

Track history (hours):
 
Tides and Currents Weather Stations Pressure Air Temp Water Temp Dewpoint Dewpoint Depression Visibility Wind Speed Wind Dir Waves Ship Positions

Bernice Lind

Owner: Riverview Equipment Company, LLC, Petaluma, CA. More information available from US FCC via Universal Licensing System and Coast Guard Vessel Documentation Center.

Last reported at 2015-May-30 01:31 UTC. Time now 2015-May-30 02:33 UTC.
Position N 38°04' W 122°17'.

Length 20 m; draft 3.3 m.

Type: Towing. MMSI: 367085890.

Date/timePositionNaut miles runAvg speedWind from/ knotsBaromVisibWave heightAir tempDewpointWater temp
2015-May-30 01:31N 38°04' W 122°17'7 6.6
2015-May-30 00:30N 38°02' W 122°09'11 5.8
2015-May-29 22:33N 38°03' W 121°54'0 0.0
2015-May-29 20:27N 38°03' W 121°54'0 0.2
2015-May-29 18:07N 38°03' W 121°55'0 0.8
2015-May-29 17:33N 38°03' W 121°55'0 0.0
2015-May-29 16:32N 38°03' W 121°55'0 0.2
2015-May-29 15:20N 38°03' W 121°56'0 0.1
2015-May-29 14:33N 38°03' W 121°56'2 2.3
2015-May-29 13:33N 38°03' W 121°58'5 4.6
2015-May-29 12:33N 38°03' W 122°04'4 4.4
2015-May-29 11:33N 38°02' W 122°10'4 4.3
2015-May-29 10:33N 38°04' W 122°15'5 4.6
2015-May-29 09:32N 38°03' W 122°21'5 5.1
2015-May-29 08:31N 38°06' W 122°27'6 5.9
2015-May-29 07:33N 38°09' W 122°32'4 3.5
2015-May-29 06:33N 38°12' W 122°35'2 2.0
2015-May-29 05:33N 38°14' W 122°36'0 0.0
2015-May-29 04:33N 38°14' W 122°36'0 0.0
2015-May-29 03:33N 38°14' W 122°36'0 0.1
2015-May-29 01:33N 38°14' W 122°37'5 5.2
2015-May-29 00:33N 38°10' W 122°33'8 6.5
2015-May-28 23:22N 38°04' W 122°26'6 6.9
2015-May-28 22:32N 37°58' W 122°26'6 6.5
2015-May-28 21:33N 37°52' W 122°24'6 6.1
2015-May-28 20:33N 37°46' W 122°23'0 0.0
2015-May-28 02:33N 37°46' W 122°23'0 0.0
2015-May-28 01:33N 37°46' W 122°23'0 0.0
2015-May-28 00:33N 37°46' W 122°23'0 0.0
2015-May-27 23:33N 37°46' W 122°23'0 0.2
2015-May-27 22:33N 37°46' W 122°23'5 5.2
2015-May-27 21:33N 37°41' W 122°20'6 5.9
2015-May-27 20:33N 37°36' W 122°17'6 5.9
2015-May-27 19:33N 37°32' W 122°12'1 0.9
2015-May-27 18:33N 37°31' W 122°12'0 0.0
2015-May-27 15:08N 37°31' W 122°13'0 0.0
2015-May-27 14:33N 37°31' W 122°13'0 0.0
2015-May-27 13:33N 37°31' W 122°13'0 0.0
2015-May-27 12:33N 37°31' W 122°13'0 0.0
2015-May-27 11:33N 37°31' W 122°13'0 0.0
2015-May-27 10:33N 37°31' W 122°13'2 2.1
2015-May-27 09:33N 37°33' W 122°12'4 4.2
2015-May-27 08:33N 37°35' W 122°16'4 4.1
2015-May-27 07:33N 37°39' W 122°19'4 4.0
2015-May-27 06:33N 37°43' W 122°21'4 3.8
2015-May-27 05:33N 37°46' W 122°23'3 2.7
2015-May-27 04:33N 37°49' W 122°24'4 4.4
2015-May-27 03:33N 37°53' W 122°25'4 3.7
2015-May-27 02:32N 37°57' W 122°26'3 3.3
2015-May-27 01:33N 37°60' W 122°25'4 3.5
2015-May-27 00:33N 38°02' W 122°21'5 4.8
2015-May-26 23:33N 38°04' W 122°16'25 3.6
2015-May-26 16:31N 38°06' W 121°43'1 0.4
2015-May-26 14:11N 38°05' W 121°44'  
2015-May-22 23:32N 38°04' W 122°13'7 7.2
2015-May-22 22:30N 38°02' W 122°22'4 4.3
2015-May-22 21:29N 37°59' W 122°27'0 0.1
2015-May-22 20:33N 37°59' W 122°27'0 0.0
2015-May-22 19:33N 37°59' W 122°27'0 0.4
2015-May-22 18:30N 37°59' W 122°26'0 0.5
2015-May-22 17:32N 37°59' W 122°27'0 0.0
2015-May-22 16:32N 37°59' W 122°27'7 7.1
2015-May-22 15:29N 38°07' W 122°28'7 7.1
2015-May-22 14:33N 38°12' W 122°33'3 0.1
2015-May-21 11:33N 38°13' W 122°36'0 0.0
2015-May-21 10:33N 38°13' W 122°36'3 2.6
2015-May-21 09:33N 38°12' W 122°34'4 3.6
2015-May-21 08:33N 38°09' W 122°32'7 4.6
2015-May-21 07:04N 38°04' W 122°26'2 3.9
2015-May-21 06:33N 38°03' W 122°24'5 5.1
2015-May-21 05:33N 38°04' W 122°17'6 5.8
2015-May-21 04:32N 38°02' W 122°10'12 1.9
2015-May-20 22:18N 38°03' W 121°55'0 0.0
2015-May-20 21:32N 38°03' W 121°55'0 0.0
2015-May-20 20:33N 38°03' W 121°55'0 0.0
2015-May-20 19:32N 38°03' W 121°55'13 3.2
2015-May-20 15:30N 38°03' W 122°11'3 3.5
2015-May-20 14:32N 38°05' W 122°15'1 0.1
2015-May-20 05:30N 38°06' W 122°16'  
Track history (hours):
 
Tides and Currents Weather Stations Pressure Air Temp Water Temp Dewpoint Dewpoint Depression Visibility Wind Speed Wind Dir Waves Ship Positions

Bernice Lind

Owner: Riverview Equipment Company, LLC, Petaluma, CA. More information available from US FCC via Universal Licensing System and Coast Guard Vessel Documentation Center.

Last reported at 2015-May-30 01:31 UTC. Time now 2015-May-30 02:33 UTC.
Position N 38°04' W 122°17'.

Length 20 m; draft 3.3 m.

Type: Towing. MMSI: 367085890.

Date/timePositionNaut miles runAvg speedWind from/ knotsBaromVisibWave heightAir tempDewpointWater temp
2015-May-30 01:31N 38°04' W 122°17'7 6.6
2015-May-30 00:30N 38°02' W 122°09'11 5.8
2015-May-29 22:33N 38°03' W 121°54'0 0.0
2015-May-29 20:27N 38°03' W 121°54'0 0.2
2015-May-29 18:07N 38°03' W 121°55'0 0.8
2015-May-29 17:33N 38°03' W 121°55'0 0.0
2015-May-29 16:32N 38°03' W 121°55'0 0.2
2015-May-29 15:20N 38°03' W 121°56'0 0.1
2015-May-29 14:33N 38°03' W 121°56'2 2.3
2015-May-29 13:33N 38°03' W 121°58'5 4.6
2015-May-29 12:33N 38°03' W 122°04'4 4.4
2015-May-29 11:33N 38°02' W 122°10'4 4.3
2015-May-29 10:33N 38°04' W 122°15'5 4.6
2015-May-29 09:32N 38°03' W 122°21'5 5.1
2015-May-29 08:31N 38°06' W 122°27'6 5.9
2015-May-29 07:33N 38°09' W 122°32'4 3.5
2015-May-29 06:33N 38°12' W 122°35'2 2.0
2015-May-29 05:33N 38°14' W 122°36'0 0.0
2015-May-29 04:33N 38°14' W 122°36'0 0.0
2015-May-29 03:33N 38°14' W 122°36'0 0.1
2015-May-29 01:33N 38°14' W 122°37'5 5.2
2015-May-29 00:33N 38°10' W 122°33'8 6.5
2015-May-28 23:22N 38°04' W 122°26'6 6.9
2015-May-28 22:32N 37°58' W 122°26'6 6.5
2015-May-28 21:33N 37°52' W 122°24'6 6.1
2015-May-28 20:33N 37°46' W 122°23'0 0.0
2015-May-28 02:33N 37°46' W 122°23'0 0.0
2015-May-28 01:33N 37°46' W 122°23'0 0.0
2015-May-28 00:33N 37°46' W 122°23'0 0.0
2015-May-27 23:33N 37°46' W 122°23'0 0.2
2015-May-27 22:33N 37°46' W 122°23'5 5.2
2015-May-27 21:33N 37°41' W 122°20'6 5.9
2015-May-27 20:33N 37°36' W 122°17'6 5.9
2015-May-27 19:33N 37°32' W 122°12'1 0.9
2015-May-27 18:33N 37°31' W 122°12'0 0.0
2015-May-27 15:08N 37°31' W 122°13'0 0.0
2015-May-27 14:33N 37°31' W 122°13'0 0.0
2015-May-27 13:33N 37°31' W 122°13'0 0.0
2015-May-27 12:33N 37°31' W 122°13'0 0.0
2015-May-27 11:33N 37°31' W 122°13'0 0.0
2015-May-27 10:33N 37°31' W 122°13'2 2.1
2015-May-27 09:33N 37°33' W 122°12'4 4.2
2015-May-27 08:33N 37°35' W 122°16'4 4.1
2015-May-27 07:33N 37°39' W 122°19'4 4.0
2015-May-27 06:33N 37°43' W 122°21'4 3.8
2015-May-27 05:33N 37°46' W 122°23'3 2.7
2015-May-27 04:33N 37°49' W 122°24'4 4.4
2015-May-27 03:33N 37°53' W 122°25'4 3.7
2015-May-27 02:32N 37°57' W 122°26'3 3.3
2015-May-27 01:33N 37°60' W 122°25'4 3.5
2015-May-27 00:33N 38°02' W 122°21'5 4.8
2015-May-26 23:33N 38°04' W 122°16'25 3.6
2015-May-26 16:31N 38°06' W 121°43'1 0.4
2015-May-26 14:11N 38°05' W 121°44'  
2015-May-22 23:32N 38°04' W 122°13'7 7.2
2015-May-22 22:30N 38°02' W 122°22'4 4.3
2015-May-22 21:29N 37°59' W 122°27'0 0.1
2015-May-22 20:33N 37°59' W 122°27'0 0.0
2015-May-22 19:33N 37°59' W 122°27'0 0.4
2015-May-22 18:30N 37°59' W 122°26'0 0.5
2015-May-22 17:32N 37°59' W 122°27'0 0.0
2015-May-22 16:32N 37°59' W 122°27'7 7.1
2015-May-22 15:29N 38°07' W 122°28'7 7.1
2015-May-22 14:33N 38°12' W 122°33'3 0.1
2015-May-21 11:33N 38°13' W 122°36'0 0.0
2015-May-21 10:33N 38°13' W 122°36'3 2.6
2015-May-21 09:33N 38°12' W 122°34'4 3.6
2015-May-21 08:33N 38°09' W 122°32'7 4.6
2015-May-21 07:04N 38°04' W 122°26'2 3.9
2015-May-21 06:33N 38°03' W 122°24'5 5.1
2015-May-21 05:33N 38°04' W 122°17'6 5.8
2015-May-21 04:32N 38°02' W 122°10'12 1.9
2015-May-20 22:18N 38°03' W 121°55'0 0.0
2015-May-20 21:32N 38°03' W 121°55'0 0.0
2015-May-20 20:33N 38°03' W 121°55'0 0.0
2015-May-20 19:32N 38°03' W 121°55'13 3.2
2015-May-20 15:30N 38°03' W 122°11'3 3.5
2015-May-20 14:32N 38°05' W 122°15'1 0.1
2015-May-20 05:30N 38°06' W 122°16'  

Dump ship's entire track history